sensor_id;sensor_type;location;lat;lon;timestamp;P1;durP1;ratioP1;P2;durP2;ratioP2
3016;SDS011;1518;52.408;13.060;2023-04-08T00:00:08;1.65;;;1.55;;
3016;SDS011;1518;52.408;13.060;2023-04-08T00:02:56;1.45;;;1.35;;
3016;SDS011;1518;52.408;13.060;2023-04-08T00:05:44;1.52;;;1.42;;
3016;SDS011;1518;52.408;13.060;2023-04-08T00:08:33;1.77;;;1.67;;
3016;SDS011;1518;52.408;13.060;2023-04-08T00:11:21;1.90;;;1.40;;
3016;SDS011;1518;52.408;13.060;2023-04-08T00:14:09;2.55;;;1.35;;
3016;SDS011;1518;52.408;13.060;2023-04-08T00:16:58;1.63;;;1.52;;
3016;SDS011;1518;52.408;13.060;2023-04-08T00:19:46;1.77;;;1.67;;
3016;SDS011;1518;52.408;13.060;2023-04-08T00:22:35;1.60;;;1.50;;
3016;SDS011;1518;52.408;13.060;2023-04-08T00:25:23;1.60;;;1.50;;
3016;SDS011;1518;52.408;13.060;2023-04-08T00:28:11;2.00;;;1.55;;
3016;SDS011;1518;52.408;13.060;2023-04-08T00:31:00;1.33;;;1.23;;
3016;SDS011;1518;52.408;13.060;2023-04-08T00:33:50;1.90;;;1.80;;
3016;SDS011;1518;52.408;13.060;2023-04-08T00:36:38;1.40;;;1.30;;
3016;SDS011;1518;52.408;13.060;2023-04-08T00:39:26;1.83;;;1.73;;
3016;SDS011;1518;52.408;13.060;2023-04-08T00:42:14;1.70;;;1.60;;
3016;SDS011;1518;52.408;13.060;2023-04-08T00:45:02;1.75;;;1.65;;
3016;SDS011;1518;52.408;13.060;2023-04-08T00:47:51;2.20;;;2.10;;
3016;SDS011;1518;52.408;13.060;2023-04-08T00:50:40;1.52;;;1.42;;
3016;SDS011;1518;52.408;13.060;2023-04-08T00:53:30;1.80;;;1.70;;
3016;SDS011;1518;52.408;13.060;2023-04-08T00:56:18;2.53;;;1.70;;
3016;SDS011;1518;52.408;13.060;2023-04-08T00:59:07;2.42;;;1.90;;
3016;SDS011;1518;52.408;13.060;2023-04-08T01:02:08;2.85;;;2.05;;
3016;SDS011;1518;52.408;13.060;2023-04-08T01:05:01;2.35;;;2.13;;
3016;SDS011;1518;52.408;13.060;2023-04-08T01:07:53;2.10;;;1.90;;
3016;SDS011;1518;52.408;13.060;2023-04-08T01:10:41;1.70;;;1.60;;
3016;SDS011;1518;52.408;13.060;2023-04-08T01:13:35;2.10;;;1.90;;
3016;SDS011;1518;52.408;13.060;2023-04-08T01:16:26;2.47;;;2.22;;
3016;SDS011;1518;52.408;13.060;2023-04-08T01:19:16;2.28;;;2.08;;
3016;SDS011;1518;52.408;13.060;2023-04-08T01:22:14;2.65;;;2.45;;
3016;SDS011;1518;52.408;13.060;2023-04-08T01:25:15;2.20;;;2.00;;
3016;SDS011;1518;52.408;13.060;2023-04-08T01:28:09;3.20;;;1.90;;
3016;SDS011;1518;52.408;13.060;2023-04-08T01:30:59;3.60;;;2.45;;
3016;SDS011;1518;52.408;13.060;2023-04-08T01:33:48;3.30;;;2.38;;
3016;SDS011;1518;52.408;13.060;2023-04-08T01:36:38;2.40;;;2.20;;
3016;SDS011;1518;52.408;13.060;2023-04-08T01:39:28;3.42;;;2.67;;
3016;SDS011;1518;52.408;13.060;2023-04-08T01:42:16;2.50;;;2.30;;
3016;SDS011;1518;52.408;13.060;2023-04-08T01:45:06;3.67;;;2.90;;
3016;SDS011;1518;52.408;13.060;2023-04-08T01:47:56;2.30;;;2.13;;
3016;SDS011;1518;52.408;13.060;2023-04-08T01:50:46;3.40;;;3.10;;
3016;SDS011;1518;52.408;13.060;2023-04-08T01:53:36;2.88;;;2.55;;
3016;SDS011;1518;52.408;13.060;2023-04-08T01:56:24;2.85;;;2.65;;
3016;SDS011;1518;52.408;13.060;2023-04-08T01:59:15;3.17;;;2.85;;
3016;SDS011;1518;52.408;13.060;2023-04-08T02:02:07;2.38;;;2.17;;
3016;SDS011;1518;52.408;13.060;2023-04-08T02:04:56;3.28;;;2.97;;
3016;SDS011;1518;52.408;13.060;2023-04-08T02:07:45;4.97;;;3.42;;
3016;SDS011;1518;52.408;13.060;2023-04-08T02:10:33;3.45;;;2.90;;
3016;SDS011;1518;52.408;13.060;2023-04-08T02:13:21;3.30;;;3.00;;
3016;SDS011;1518;52.408;13.060;2023-04-08T02:16:11;4.38;;;3.50;;
3016;SDS011;1518;52.408;13.060;2023-04-08T02:19:06;3.58;;;3.13;;
3016;SDS011;1518;52.408;13.060;2023-04-08T02:22:00;4.00;;;3.15;;
3016;SDS011;1518;52.408;13.060;2023-04-08T02:24:52;3.25;;;2.40;;
3016;SDS011;1518;52.408;13.060;2023-04-08T02:27:40;4.00;;;3.25;;
3016;SDS011;1518;52.408;13.060;2023-04-08T02:30:30;3.40;;;3.10;;
3016;SDS011;1518;52.408;13.060;2023-04-08T02:33:20;3.38;;;3.08;;
3016;SDS011;1518;52.408;13.060;2023-04-08T02:36:11;5.18;;;3.60;;
3016;SDS011;1518;52.408;13.060;2023-04-08T02:39:00;3.15;;;2.85;;
3016;SDS011;1518;52.408;13.060;2023-04-08T02:41:49;4.03;;;3.63;;
3016;SDS011;1518;52.408;13.060;2023-04-08T02:44:37;3.15;;;2.50;;
3016;SDS011;1518;52.408;13.060;2023-04-08T02:47:25;4.32;;;3.80;;
3016;SDS011;1518;52.408;13.060;2023-04-08T02:50:13;4.05;;;3.08;;
3016;SDS011;1518;52.408;13.060;2023-04-08T02:53:03;5.03;;;3.78;;
3016;SDS011;1518;52.408;13.060;2023-04-08T02:55:51;4.40;;;3.70;;
3016;SDS011;1518;52.408;13.060;2023-04-08T02:58:39;3.30;;;3.08;;
3016;SDS011;1518;52.408;13.060;2023-04-08T03:01:27;4.25;;;3.45;;
3016;SDS011;1518;52.408;13.060;2023-04-08T03:04:16;4.72;;;3.72;;
3016;SDS011;1518;52.408;13.060;2023-04-08T03:07:04;3.97;;;3.55;;
3016;SDS011;1518;52.408;13.060;2023-04-08T03:09:55;3.95;;;3.10;;
3016;SDS011;1518;52.408;13.060;2023-04-08T03:12:43;5.00;;;3.92;;
3016;SDS011;1518;52.408;13.060;2023-04-08T03:15:31;5.20;;;4.53;;
3016;SDS011;1518;52.408;13.060;2023-04-08T03:18:19;4.78;;;4.03;;
3016;SDS011;1518;52.408;13.060;2023-04-08T03:21:07;4.15;;;3.80;;
3016;SDS011;1518;52.408;13.060;2023-04-08T03:23:56;3.10;;;2.67;;
3016;SDS011;1518;52.408;13.060;2023-04-08T03:26:45;4.38;;;3.20;;
3016;SDS011;1518;52.408;13.060;2023-04-08T03:29:33;3.65;;;3.03;;
3016;SDS011;1518;52.408;13.060;2023-04-08T03:32:21;5.10;;;3.55;;
3016;SDS011;1518;52.408;13.060;2023-04-08T03:35:09;4.13;;;3.35;;
3016;SDS011;1518;52.408;13.060;2023-04-08T03:37:57;4.07;;;3.60;;
3016;SDS011;1518;52.408;13.060;2023-04-08T03:40:46;4.43;;;3.53;;
3016;SDS011;1518;52.408;13.060;2023-04-08T03:43:35;5.93;;;4.60;;
3016;SDS011;1518;52.408;13.060;2023-04-08T03:46:23;5.40;;;4.25;;
3016;SDS011;1518;52.408;13.060;2023-04-08T03:49:11;4.57;;;4.03;;
3016;SDS011;1518;52.408;13.060;2023-04-08T03:51:59;4.97;;;4.47;;
3016;SDS011;1518;52.408;13.060;2023-04-08T03:54:47;7.03;;;4.25;;
3016;SDS011;1518;52.408;13.060;2023-04-08T03:57:35;4.80;;;4.25;;
3016;SDS011;1518;52.408;13.060;2023-04-08T04:00:25;6.50;;;4.25;;
3016;SDS011;1518;52.408;13.060;2023-04-08T04:03:13;5.50;;;4.47;;
3016;SDS011;1518;52.408;13.060;2023-04-08T04:06:01;5.53;;;4.63;;
3016;SDS011;1518;52.408;13.060;2023-04-08T04:08:51;5.95;;;4.30;;
3016;SDS011;1518;52.408;13.060;2023-04-08T04:11:39;4.20;;;3.80;;
3016;SDS011;1518;52.408;13.060;2023-04-08T04:14:28;5.57;;;4.35;;
3016;SDS011;1518;52.408;13.060;2023-04-08T04:17:17;4.50;;;4.03;;
3016;SDS011;1518;52.408;13.060;2023-04-08T04:20:05;5.05;;;4.20;;
3016;SDS011;1518;52.408;13.060;2023-04-08T04:22:54;5.60;;;4.40;;
3016;SDS011;1518;52.408;13.060;2023-04-08T04:25:42;6.28;;;4.15;;
3016;SDS011;1518;52.408;13.060;2023-04-08T04:28:30;5.32;;;3.72;;
3016;SDS011;1518;52.408;13.060;2023-04-08T04:31:18;5.90;;;4.28;;
3016;SDS011;1518;52.408;13.060;2023-04-08T04:34:09;6.78;;;4.57;;
3016;SDS011;1518;52.408;13.060;2023-04-08T04:36:57;4.95;;;3.92;;
3016;SDS011;1518;52.408;13.060;2023-04-08T04:39:45;6.40;;;4.88;;
3016;SDS011;1518;52.408;13.060;2023-04-08T04:42:33;6.68;;;4.57;;
3016;SDS011;1518;52.408;13.060;2023-04-08T04:45:21;7.78;;;4.35;;
3016;SDS011;1518;52.408;13.060;2023-04-08T04:48:09;6.60;;;4.95;;
3016;SDS011;1518;52.408;13.060;2023-04-08T04:50:59;6.10;;;4.57;;
3016;SDS011;1518;52.408;13.060;2023-04-08T04:53:48;5.03;;;4.35;;
3016;SDS011;1518;52.408;13.060;2023-04-08T04:56:37;6.47;;;5.03;;
3016;SDS011;1518;52.408;13.060;2023-04-08T04:59:25;5.10;;;4.22;;
3016;SDS011;1518;52.408;13.060;2023-04-08T05:02:13;6.60;;;4.50;;
3016;SDS011;1518;52.408;13.060;2023-04-08T05:05:01;6.85;;;4.80;;
3016;SDS011;1518;52.408;13.060;2023-04-08T05:07:50;6.82;;;5.35;;
3016;SDS011;1518;52.408;13.060;2023-04-08T05:10:39;7.50;;;5.93;;
3016;SDS011;1518;52.408;13.060;2023-04-08T05:13:27;6.20;;;4.35;;
3016;SDS011;1518;52.408;13.060;2023-04-08T05:16:15;6.82;;;4.90;;
3016;SDS011;1518;52.408;13.060;2023-04-08T05:19:04;5.53;;;4.43;;
3016;SDS011;1518;52.408;13.060;2023-04-08T05:21:52;6.20;;;4.25;;
3016;SDS011;1518;52.408;13.060;2023-04-08T05:24:41;7.03;;;4.97;;
3016;SDS011;1518;52.408;13.060;2023-04-08T05:27:29;7.78;;;5.03;;
3016;SDS011;1518;52.408;13.060;2023-04-08T05:30:17;5.20;;;4.68;;
3016;SDS011;1518;52.408;13.060;2023-04-08T05:33:06;6.95;;;4.80;;
3016;SDS011;1518;52.408;13.060;2023-04-08T05:35:54;7.00;;;5.63;;
3016;SDS011;1518;52.408;13.060;2023-04-08T05:38:42;7.60;;;5.75;;
3016;SDS011;1518;52.408;13.060;2023-04-08T05:41:32;6.05;;;4.88;;
3016;SDS011;1518;52.408;13.060;2023-04-08T05:44:20;5.93;;;4.97;;
3016;SDS011;1518;52.408;13.060;2023-04-08T05:47:08;6.38;;;5.10;;
3016;SDS011;1518;52.408;13.060;2023-04-08T05:49:56;7.28;;;5.28;;
3016;SDS011;1518;52.408;13.060;2023-04-08T05:52:44;7.10;;;5.32;;
3016;SDS011;1518;52.408;13.060;2023-04-08T05:55:33;6.80;;;4.75;;
3016;SDS011;1518;52.408;13.060;2023-04-08T05:58:22;6.75;;;5.32;;
3016;SDS011;1518;52.408;13.060;2023-04-08T06:01:10;6.78;;;5.47;;
3016;SDS011;1518;52.408;13.060;2023-04-08T06:03:58;5.32;;;4.47;;
3016;SDS011;1518;52.408;13.060;2023-04-08T06:06:47;6.40;;;5.25;;
3016;SDS011;1518;52.408;13.060;2023-04-08T06:09:35;9.10;;;5.85;;
3016;SDS011;1518;52.408;13.060;2023-04-08T06:12:23;8.32;;;5.70;;
3016;SDS011;1518;52.408;13.060;2023-04-08T06:15:13;9.50;;;6.35;;
3016;SDS011;1518;52.408;13.060;2023-04-08T06:18:02;7.20;;;5.70;;
3016;SDS011;1518;52.408;13.060;2023-04-08T06:20:50;8.18;;;5.82;;
3016;SDS011;1518;52.408;13.060;2023-04-08T06:23:38;9.68;;;5.47;;
3016;SDS011;1518;52.408;13.060;2023-04-08T06:26:26;9.27;;;6.22;;
3016;SDS011;1518;52.408;13.060;2023-04-08T06:29:14;7.50;;;5.38;;
3016;SDS011;1518;52.408;13.060;2023-04-08T06:32:04;6.90;;;5.38;;
3016;SDS011;1518;52.408;13.060;2023-04-08T06:34:52;7.35;;;5.63;;
3016;SDS011;1518;52.408;13.060;2023-04-08T06:37:40;7.65;;;5.97;;
3016;SDS011;1518;52.408;13.060;2023-04-08T06:40:28;7.07;;;5.93;;
3016;SDS011;1518;52.408;13.060;2023-04-08T06:43:16;6.80;;;6.07;;
3016;SDS011;1518;52.408;13.060;2023-04-08T06:46:04;6.38;;;5.00;;
3016;SDS011;1518;52.408;13.060;2023-04-08T06:48:54;7.35;;;4.85;;
3016;SDS011;1518;52.408;13.060;2023-04-08T06:51:42;6.57;;;5.22;;
3016;SDS011;1518;52.408;13.060;2023-04-08T06:54:30;8.50;;;6.13;;
3016;SDS011;1518;52.408;13.060;2023-04-08T06:57:18;6.28;;;5.43;;
3016;SDS011;1518;52.408;13.060;2023-04-08T07:00:06;7.88;;;5.97;;
3016;SDS011;1518;52.408;13.060;2023-04-08T07:02:55;7.13;;;5.15;;
3016;SDS011;1518;52.408;13.060;2023-04-08T07:05:45;7.20;;;5.53;;
3016;SDS011;1518;52.408;13.060;2023-04-08T07:08:34;7.13;;;5.30;;
3016;SDS011;1518;52.408;13.060;2023-04-08T07:11:22;8.40;;;6.10;;
3016;SDS011;1518;52.408;13.060;2023-04-08T07:14:11;7.32;;;6.07;;
3016;SDS011;1518;52.408;13.060;2023-04-08T07:16:59;7.45;;;5.60;;
3016;SDS011;1518;52.408;13.060;2023-04-08T07:19:47;7.15;;;5.55;;
3016;SDS011;1518;52.408;13.060;2023-04-08T07:22:37;7.35;;;6.10;;
3016;SDS011;1518;52.408;13.060;2023-04-08T07:25:25;8.85;;;5.47;;
3016;SDS011;1518;52.408;13.060;2023-04-08T07:28:13;10.63;;;6.07;;
3016;SDS011;1518;52.408;13.060;2023-04-08T07:31:11;7.72;;;5.20;;
3016;SDS011;1518;52.408;13.060;2023-04-08T07:34:00;8.20;;;5.97;;
3016;SDS011;1518;52.408;13.060;2023-04-08T07:36:48;9.90;;;6.00;;
3016;SDS011;1518;52.408;13.060;2023-04-08T07:39:38;8.85;;;6.43;;
3016;SDS011;1518;52.408;13.060;2023-04-08T07:42:26;6.25;;;5.63;;
3016;SDS011;1518;52.408;13.060;2023-04-08T07:45:14;8.27;;;6.43;;
3016;SDS011;1518;52.408;13.060;2023-04-08T07:48:02;9.23;;;6.07;;
3016;SDS011;1518;52.408;13.060;2023-04-08T07:50:51;9.30;;;6.18;;
3016;SDS011;1518;52.408;13.060;2023-04-08T07:53:55;8.07;;;6.40;;
3016;SDS011;1518;52.408;13.060;2023-04-08T07:56:45;8.57;;;6.95;;
3016;SDS011;1518;52.408;13.060;2023-04-08T07:59:33;8.23;;;6.38;;
3016;SDS011;1518;52.408;13.060;2023-04-08T08:02:21;7.57;;;5.70;;
3016;SDS011;1518;52.408;13.060;2023-04-08T08:05:10;9.13;;;5.65;;
3016;SDS011;1518;52.408;13.060;2023-04-08T08:07:59;7.85;;;5.90;;
3016;SDS011;1518;52.408;13.060;2023-04-08T08:10:47;6.80;;;6.05;;
3016;SDS011;1518;52.408;13.060;2023-04-08T08:13:36;8.50;;;6.53;;
3016;SDS011;1518;52.408;13.060;2023-04-08T08:16:26;6.95;;;5.75;;
3016;SDS011;1518;52.408;13.060;2023-04-08T08:19:15;8.35;;;6.10;;
3016;SDS011;1518;52.408;13.060;2023-04-08T08:22:03;7.93;;;5.97;;
3016;SDS011;1518;52.408;13.060;2023-04-08T08:24:53;9.32;;;6.47;;
3016;SDS011;1518;52.408;13.060;2023-04-08T08:27:43;7.47;;;6.25;;
3016;SDS011;1518;52.408;13.060;2023-04-08T08:30:32;8.50;;;5.85;;
3016;SDS011;1518;52.408;13.060;2023-04-08T08:33:20;7.65;;;6.18;;
3016;SDS011;1518;52.408;13.060;2023-04-08T08:36:08;8.82;;;6.68;;
3016;SDS011;1518;52.408;13.060;2023-04-08T08:38:56;6.43;;;5.78;;
3016;SDS011;1518;52.408;13.060;2023-04-08T08:41:45;9.75;;;7.25;;
3016;SDS011;1518;52.408;13.060;2023-04-08T08:44:33;8.23;;;6.35;;
3016;SDS011;1518;52.408;13.060;2023-04-08T08:47:22;10.25;;;6.03;;
3016;SDS011;1518;52.408;13.060;2023-04-08T08:50:11;7.15;;;6.05;;
3016;SDS011;1518;52.408;13.060;2023-04-08T08:52:59;9.32;;;6.70;;
3016;SDS011;1518;52.408;13.060;2023-04-08T08:55:48;8.57;;;6.53;;
3016;SDS011;1518;52.408;13.060;2023-04-08T08:58:56;7.72;;;6.22;;
3016;SDS011;1518;52.408;13.060;2023-04-08T09:01:44;6.30;;;5.43;;
3016;SDS011;1518;52.408;13.060;2023-04-08T09:04:34;7.97;;;6.25;;
3016;SDS011;1518;52.408;13.060;2023-04-08T09:07:23;6.95;;;5.88;;
3016;SDS011;1518;52.408;13.060;2023-04-08T09:10:12;9.10;;;7.03;;
3016;SDS011;1518;52.408;13.060;2023-04-08T09:13:00;6.70;;;6.00;;
3016;SDS011;1518;52.408;13.060;2023-04-08T09:16:01;10.60;;;6.93;;
3016;SDS011;1518;52.408;13.060;2023-04-08T09:18:50;8.35;;;6.45;;
3016;SDS011;1518;52.408;13.060;2023-04-08T09:21:40;10.18;;;7.03;;
3016;SDS011;1518;52.408;13.060;2023-04-08T09:24:29;7.78;;;6.35;;
3016;SDS011;1518;52.408;13.060;2023-04-08T09:27:31;7.43;;;6.57;;
3016;SDS011;1518;52.408;13.060;2023-04-08T09:30:21;9.20;;;6.32;;
3016;SDS011;1518;52.408;13.060;2023-04-08T09:33:10;6.97;;;6.25;;
3016;SDS011;1518;52.408;13.060;2023-04-08T09:35:58;8.43;;;6.70;;
3016;SDS011;1518;52.408;13.060;2023-04-08T09:38:47;7.90;;;6.75;;
3016;SDS011;1518;52.408;13.060;2023-04-08T09:41:37;7.75;;;6.43;;
3016;SDS011;1518;52.408;13.060;2023-04-08T09:44:26;8.82;;;6.03;;
3016;SDS011;1518;52.408;13.060;2023-04-08T09:47:17;8.85;;;7.05;;
3016;SDS011;1518;52.408;13.060;2023-04-08T09:50:07;9.00;;;7.03;;
3016;SDS011;1518;52.408;13.060;2023-04-08T09:52:58;6.60;;;5.75;;
3016;SDS011;1518;52.408;13.060;2023-04-08T09:55:50;6.05;;;5.45;;
3016;SDS011;1518;52.408;13.060;2023-04-08T09:58:44;7.50;;;6.50;;
3016;SDS011;1518;52.408;13.060;2023-04-08T10:01:39;7.68;;;6.63;;
3016;SDS011;1518;52.408;13.060;2023-04-08T10:04:31;7.47;;;6.22;;
3016;SDS011;1518;52.408;13.060;2023-04-08T10:07:25;7.55;;;6.60;;
3016;SDS011;1518;52.408;13.060;2023-04-08T10:10:13;11.30;;;6.57;;
3016;SDS011;1518;52.408;13.060;2023-04-08T10:13:02;9.20;;;6.60;;
3016;SDS011;1518;52.408;13.060;2023-04-08T10:15:53;6.60;;;5.95;;
3016;SDS011;1518;52.408;13.060;2023-04-08T10:22:44;8.52;;;6.43;;
3016;SDS011;1518;52.408;13.060;2023-04-08T10:25:34;8.60;;;7.07;;
3016;SDS011;1518;52.408;13.060;2023-04-08T10:28:23;7.82;;;7.00;;
3016;SDS011;1518;52.408;13.060;2023-04-08T10:31:11;8.38;;;6.45;;
3016;SDS011;1518;52.408;13.060;2023-04-08T10:34:16;7.28;;;6.28;;
3016;SDS011;1518;52.408;13.060;2023-04-08T10:37:04;6.97;;;6.28;;
3016;SDS011;1518;52.408;13.060;2023-04-08T10:39:54;8.55;;;7.07;;
3016;SDS011;1518;52.408;13.060;2023-04-08T10:42:42;9.00;;;6.30;;
3016;SDS011;1518;52.408;13.060;2023-04-08T10:45:30;8.65;;;7.18;;
3016;SDS011;1518;52.408;13.060;2023-04-08T10:48:20;9.32;;;6.80;;
3016;SDS011;1518;52.408;13.060;2023-04-08T10:51:10;9.00;;;6.63;;
3016;SDS011;1518;52.408;13.060;2023-04-08T10:54:04;7.10;;;6.15;;
3016;SDS011;1518;52.408;13.060;2023-04-08T10:56:52;8.77;;;7.30;;
3016;SDS011;1518;52.408;13.060;2023-04-08T10:59:40;7.55;;;6.03;;
3016;SDS011;1518;52.408;13.060;2023-04-08T11:02:31;8.70;;;6.93;;
3016;SDS011;1518;52.408;13.060;2023-04-08T11:05:22;9.75;;;6.72;;
3016;SDS011;1518;52.408;13.060;2023-04-08T11:08:10;7.15;;;6.20;;
3016;SDS011;1518;52.408;13.060;2023-04-08T11:10:58;9.07;;;7.78;;
3016;SDS011;1518;52.408;13.060;2023-04-08T11:13:47;10.07;;;6.55;;
3016;SDS011;1518;52.408;13.060;2023-04-08T11:16:39;8.07;;;6.53;;
3016;SDS011;1518;52.408;13.060;2023-04-08T11:19:27;9.88;;;6.72;;
3016;SDS011;1518;52.408;13.060;2023-04-08T11:22:17;7.80;;;6.57;;
3016;SDS011;1518;52.408;13.060;2023-04-08T11:25:06;9.10;;;6.38;;
3016;SDS011;1518;52.408;13.060;2023-04-08T11:27:55;8.00;;;6.57;;
3016;SDS011;1518;52.408;13.060;2023-04-08T11:30:43;8.48;;;7.57;;
3016;SDS011;1518;52.408;13.060;2023-04-08T11:33:33;9.40;;;7.00;;
3016;SDS011;1518;52.408;13.060;2023-04-08T11:36:21;7.57;;;6.68;;
3016;SDS011;1518;52.408;13.060;2023-04-08T11:39:11;7.68;;;6.15;;
3016;SDS011;1518;52.408;13.060;2023-04-08T11:41:59;6.78;;;5.80;;
3016;SDS011;1518;52.408;13.060;2023-04-08T11:44:47;6.97;;;6.15;;
3016;SDS011;1518;52.408;13.060;2023-04-08T11:47:35;8.68;;;6.68;;
3016;SDS011;1518;52.408;13.060;2023-04-08T11:50:24;7.72;;;6.80;;
3016;SDS011;1518;52.408;13.060;2023-04-08T11:53:15;8.73;;;6.88;;
3016;SDS011;1518;52.408;13.060;2023-04-08T11:56:16;10.55;;;6.47;;
3016;SDS011;1518;52.408;13.060;2023-04-08T11:59:04;8.65;;;7.20;;
3016;SDS011;1518;52.408;13.060;2023-04-08T12:01:52;7.82;;;6.60;;
3016;SDS011;1518;52.408;13.060;2023-04-08T12:04:40;7.82;;;6.22;;
3016;SDS011;1518;52.408;13.060;2023-04-08T12:07:29;7.05;;;6.35;;
3016;SDS011;1518;52.408;13.060;2023-04-08T12:10:17;8.13;;;5.85;;
3016;SDS011;1518;52.408;13.060;2023-04-08T12:13:06;8.55;;;6.25;;
3016;SDS011;1518;52.408;13.060;2023-04-08T12:15:54;7.75;;;6.50;;
3016;SDS011;1518;52.408;13.060;2023-04-08T12:18:42;6.32;;;5.68;;
3016;SDS011;1518;52.408;13.060;2023-04-08T12:21:30;7.85;;;6.03;;
3016;SDS011;1518;52.408;13.060;2023-04-08T12:24:19;9.23;;;7.25;;
3016;SDS011;1518;52.408;13.060;2023-04-08T12:27:07;8.60;;;6.50;;
3016;SDS011;1518;52.408;13.060;2023-04-08T12:29:56;8.30;;;5.97;;
3016;SDS011;1518;52.408;13.060;2023-04-08T12:32:44;10.48;;;6.88;;
3016;SDS011;1518;52.408;13.060;2023-04-08T12:35:34;7.40;;;6.60;;
3016;SDS011;1518;52.408;13.060;2023-04-08T12:38:22;7.85;;;6.32;;
3016;SDS011;1518;52.408;13.060;2023-04-08T12:41:11;6.80;;;5.82;;
3016;SDS011;1518;52.408;13.060;2023-04-08T12:43:59;7.22;;;6.05;;
3016;SDS011;1518;52.408;13.060;2023-04-08T12:46:48;7.28;;;6.43;;
3016;SDS011;1518;52.408;13.060;2023-04-08T12:49:36;6.63;;;5.97;;
3016;SDS011;1518;52.408;13.060;2023-04-08T12:52:27;8.20;;;5.85;;
3016;SDS011;1518;52.408;13.060;2023-04-08T12:55:15;7.97;;;6.72;;
3016;SDS011;1518;52.408;13.060;2023-04-08T12:58:03;7.15;;;6.20;;
3016;SDS011;1518;52.408;13.060;2023-04-08T13:00:52;7.63;;;6.43;;
3016;SDS011;1518;52.408;13.060;2023-04-08T13:03:41;6.70;;;6.10;;
3016;SDS011;1518;52.408;13.060;2023-04-08T13:06:32;7.70;;;6.20;;
3016;SDS011;1518;52.408;13.060;2023-04-08T13:09:20;6.45;;;5.57;;
3016;SDS011;1518;52.408;13.060;2023-04-08T13:12:08;8.75;;;6.80;;
3016;SDS011;1518;52.408;13.060;2023-04-08T13:14:57;8.07;;;6.30;;
3016;SDS011;1518;52.408;13.060;2023-04-08T13:17:46;6.80;;;6.10;;
3016;SDS011;1518;52.408;13.060;2023-04-08T13:20:36;7.25;;;6.03;;
3016;SDS011;1518;52.408;13.060;2023-04-08T13:23:24;7.28;;;6.30;;
3016;SDS011;1518;52.408;13.060;2023-04-08T13:26:12;7.35;;;6.07;;
3016;SDS011;1518;52.408;13.060;2023-04-08T13:29:07;7.00;;;5.63;;
3016;SDS011;1518;52.408;13.060;2023-04-08T13:31:56;5.93;;;5.32;;
3016;SDS011;1518;52.408;13.060;2023-04-08T13:34:44;6.78;;;6.18;;
3016;SDS011;1518;52.408;13.060;2023-04-08T13:37:32;6.68;;;5.82;;
3016;SDS011;1518;52.408;13.060;2023-04-08T13:40:20;6.70;;;5.72;;
3016;SDS011;1518;52.408;13.060;2023-04-08T13:43:08;7.03;;;5.90;;
3016;SDS011;1518;52.408;13.060;2023-04-08T13:45:58;5.90;;;5.18;;
3016;SDS011;1518;52.408;13.060;2023-04-08T13:48:47;7.13;;;6.43;;
3016;SDS011;1518;52.408;13.060;2023-04-08T13:51:36;6.50;;;5.72;;
3016;SDS011;1518;52.408;13.060;2023-04-08T13:54:24;8.20;;;5.65;;
3016;SDS011;1518;52.408;13.060;2023-04-08T13:57:13;5.55;;;5.05;;
3016;SDS011;1518;52.408;13.060;2023-04-08T14:00:01;5.70;;;5.10;;
3016;SDS011;1518;52.408;13.060;2023-04-08T14:02:51;6.30;;;5.65;;
3016;SDS011;1518;52.408;13.060;2023-04-08T14:05:40;5.85;;;5.25;;
3016;SDS011;1518;52.408;13.060;2023-04-08T14:08:29;6.55;;;5.68;;
3016;SDS011;1518;52.408;13.060;2023-04-08T14:11:17;7.38;;;5.82;;
3016;SDS011;1518;52.408;13.060;2023-04-08T14:14:07;6.43;;;5.57;;
3016;SDS011;1518;52.408;13.060;2023-04-08T14:16:55;6.80;;;5.38;;
3016;SDS011;1518;52.408;13.060;2023-04-08T14:19:45;7.88;;;5.97;;
3016;SDS011;1518;52.408;13.060;2023-04-08T14:22:33;5.35;;;4.85;;
3016;SDS011;1518;52.408;13.060;2023-04-08T14:25:22;5.75;;;5.18;;
3016;SDS011;1518;52.408;13.060;2023-04-08T14:28:10;5.57;;;5.07;;
3016;SDS011;1518;52.408;13.060;2023-04-08T14:30:59;5.38;;;4.93;;
3016;SDS011;1518;52.408;13.060;2023-04-08T14:33:49;6.28;;;5.68;;
3016;SDS011;1518;52.408;13.060;2023-04-08T14:36:39;6.28;;;5.68;;
3016;SDS011;1518;52.408;13.060;2023-04-08T14:39:27;5.82;;;5.18;;
3016;SDS011;1518;52.408;13.060;2023-04-08T14:42:16;6.07;;;5.47;;
3016;SDS011;1518;52.408;13.060;2023-04-08T14:45:04;6.13;;;5.57;;
3016;SDS011;1518;52.408;13.060;2023-04-08T14:47:53;5.80;;;5.20;;
3016;SDS011;1518;52.408;13.060;2023-04-08T14:50:42;6.13;;;5.35;;
3016;SDS011;1518;52.408;13.060;2023-04-08T14:53:32;6.93;;;5.22;;
3016;SDS011;1518;52.408;13.060;2023-04-08T14:56:21;5.50;;;4.47;;
3016;SDS011;1518;52.408;13.060;2023-04-08T14:59:09;5.82;;;5.22;;
3016;SDS011;1518;52.408;13.060;2023-04-08T15:01:57;6.13;;;5.20;;
3016;SDS011;1518;52.408;13.060;2023-04-08T15:04:46;6.45;;;5.32;;
3016;SDS011;1518;52.408;13.060;2023-04-08T15:07:34;5.93;;;5.32;;
3016;SDS011;1518;52.408;13.060;2023-04-08T15:10:24;5.57;;;4.93;;
3016;SDS011;1518;52.408;13.060;2023-04-08T15:13:13;5.47;;;4.97;;
3016;SDS011;1518;52.408;13.060;2023-04-08T15:16:01;5.97;;;5.38;;
3016;SDS011;1518;52.408;13.060;2023-04-08T15:18:50;5.95;;;5.45;;
3016;SDS011;1518;52.408;13.060;2023-04-08T15:21:39;6.28;;;5.28;;
3016;SDS011;1518;52.408;13.060;2023-04-08T15:24:27;6.03;;;5.43;;
3016;SDS011;1518;52.408;13.060;2023-04-08T15:27:17;6.07;;;5.47;;
3016;SDS011;1518;52.408;13.060;2023-04-08T15:30:06;5.28;;;4.78;;
3016;SDS011;1518;52.408;13.060;2023-04-08T15:32:58;6.57;;;5.10;;
3016;SDS011;1518;52.408;13.060;2023-04-08T15:35:46;6.47;;;4.78;;
3016;SDS011;1518;52.408;13.060;2023-04-08T15:38:35;5.95;;;5.35;;
3016;SDS011;1518;52.408;13.060;2023-04-08T15:41:24;5.78;;;5.28;;
3016;SDS011;1518;52.408;13.060;2023-04-08T15:44:14;5.25;;;4.75;;
3016;SDS011;1518;52.408;13.060;2023-04-08T15:47:02;6.22;;;5.53;;
3016;SDS011;1518;52.408;13.060;2023-04-08T15:49:51;5.13;;;4.63;;
3016;SDS011;1518;52.408;13.060;2023-04-08T15:52:41;6.10;;;5.53;;
3016;SDS011;1518;52.408;13.060;2023-04-08T15:55:30;6.22;;;5.13;;
3016;SDS011;1518;52.408;13.060;2023-04-08T15:58:23;5.57;;;5.03;;
3016;SDS011;1518;52.408;13.060;2023-04-08T16:01:13;5.28;;;4.78;;
3016;SDS011;1518;52.408;13.060;2023-04-08T16:04:04;5.57;;;5.05;;
3016;SDS011;1518;52.408;13.060;2023-04-08T16:06:53;5.35;;;4.85;;
3016;SDS011;1518;52.408;13.060;2023-04-08T16:09:42;5.60;;;4.90;;
3016;SDS011;1518;52.408;13.060;2023-04-08T16:12:30;4.88;;;4.45;;
3016;SDS011;1518;52.408;13.060;2023-04-08T16:15:19;5.68;;;5.18;;
3016;SDS011;1518;52.408;13.060;2023-04-08T16:18:09;4.93;;;4.43;;
3016;SDS011;1518;52.408;13.060;2023-04-08T16:20:57;5.00;;;4.60;;
3016;SDS011;1518;52.408;13.060;2023-04-08T16:23:46;5.30;;;4.80;;
3016;SDS011;1518;52.408;13.060;2023-04-08T16:26:34;5.30;;;4.90;;
3016;SDS011;1518;52.408;13.060;2023-04-08T16:29:23;5.25;;;4.75;;
3016;SDS011;1518;52.408;13.060;2023-04-08T16:32:12;4.88;;;4.38;;
3016;SDS011;1518;52.408;13.060;2023-04-08T16:35:02;5.10;;;4.57;;
3016;SDS011;1518;52.408;13.060;2023-04-08T16:37:51;5.28;;;4.78;;
3016;SDS011;1518;52.408;13.060;2023-04-08T16:40:40;5.90;;;5.30;;
3016;SDS011;1518;52.408;13.060;2023-04-08T16:43:28;4.90;;;4.43;;
3016;SDS011;1518;52.408;13.060;2023-04-08T16:46:16;6.50;;;5.35;;
3016;SDS011;1518;52.408;13.060;2023-04-08T16:49:05;4.95;;;4.47;;
3016;SDS011;1518;52.408;13.060;2023-04-08T16:51:55;4.93;;;4.38;;
3016;SDS011;1518;52.408;13.060;2023-04-08T16:54:43;5.63;;;5.00;;
3016;SDS011;1518;52.408;13.060;2023-04-08T16:57:33;4.97;;;4.38;;
3016;SDS011;1518;52.408;13.060;2023-04-08T17:00:21;4.72;;;4.20;;
3016;SDS011;1518;52.408;13.060;2023-04-08T17:03:10;5.53;;;4.60;;
3016;SDS011;1518;52.408;13.060;2023-04-08T17:06:04;5.15;;;4.65;;
3016;SDS011;1518;52.408;13.060;2023-04-08T17:08:54;4.70;;;4.30;;
3016;SDS011;1518;52.408;13.060;2023-04-08T17:11:43;5.47;;;4.80;;
3016;SDS011;1518;52.408;13.060;2023-04-08T17:14:33;5.00;;;4.45;;
3016;SDS011;1518;52.408;13.060;2023-04-08T17:17:21;5.25;;;4.75;;